Time;durP1;ratioP1;P1;durP2;ratioP2;P2;SDS_P1;SDS_P2;PMS_P1;PMS_P2;Temp;Humidity;BMP_temperature;BMP_pressure;BME280_temperature;BME280_humidity;BME280_pressure;Samples;Min_cycle;Max_cycle;Signal;HPM_P1;HPM_P2
2023/09/09 00:03:21;;;;;;;7.53;5.63;;;27.70;99.90;;;;;;10044763;28;20056;-73
2023/09/09 00:08:12;;;;;;;8.68;5.93;;;27.70;99.90;;;;;;10038725;28;20437;-72
2023/09/09 00:13:04;;;;;;;8.88;7.05;;;27.60;99.90;;;;;;10034569;28;20026;-72
2023/09/09 00:17:54;;;;;;;9.48;6.35;;;27.50;99.90;;;;;;10026472;28;20061;-73
2023/09/09 00:22:45;;;;;;;9.57;5.97;;;27.40;99.90;;;;;;10022757;28;20484;-72
2023/09/09 00:27:35;;;;;;;13.95;7.07;;;27.50;99.90;;;;;;10035262;28;20077;-73
2023/09/09 00:32:26;;;;;;;12.48;7.72;;;27.40;99.90;;;;;;10043283;28;20045;-73
2023/09/09 00:37:16;;;;;;;8.85;7.30;;;27.30;99.90;;;;;;10034157;28;20453;-73
2023/09/09 00:42:07;;;;;;;9.35;7.00;;;27.20;99.90;;;;;;10036558;28;20045;-72
2023/09/09 00:46:59;;;;;;;11.27;7.35;;;27.30;99.90;;;;;;10034305;28;20477;-72
2023/09/09 00:51:51;;;;;;;10.88;7.05;;;27.10;99.90;;;;;;10035136;28;20140;-72
2023/09/09 00:56:42;;;;;;;10.80;6.80;;;27.10;99.90;;;;;;10040820;28;20020;-71
2023/09/09 01:01:33;;;;;;;9.70;6.75;;;27.10;99.90;;;;;;10049521;28;20570;-72
2023/09/09 01:06:24;;;;;;;9.05;6.70;;;27.00;99.90;;;;;;10044584;28;20022;-72
2023/09/09 01:11:15;;;;;;;9.43;7.53;;;26.90;99.90;;;;;;10044446;28;20137;-72
2023/09/09 01:16:06;;;;;;;10.18;6.55;;;26.90;99.90;;;;;;10037987;28;20400;-71
2023/09/09 01:21:18;;;;;;;8.45;7.55;;;26.90;99.90;;;;;;10031930;28;20121;-72
2023/09/09 01:26:09;;;;;;;9.55;7.32;;;26.80;99.90;;;;;;10024444;28;20018;-71
2023/09/09 01:30:59;;;;;;;11.88;7.32;;;26.90;99.90;;;;;;10018417;28;20034;-72
2023/09/09 01:35:50;;;;;;;8.77;7.35;;;26.80;99.90;;;;;;10003997;28;20032;-71
2023/09/09 01:40:40;;;;;;;8.38;6.47;;;26.80;99.90;;;;;;10015074;28;20048;-71
2023/09/09 01:45:31;;;;;;;9.40;7.65;;;26.60;99.90;;;;;;10042513;28;20033;-72
2023/09/09 01:50:22;;;;;;;11.60;8.68;;;26.60;99.90;;;;;;10034975;28;20065;-72
2023/09/09 01:55:12;;;;;;;10.18;7.53;;;26.50;99.90;;;;;;10038541;28;20026;-71
2023/09/09 02:00:09;;;;;;;11.10;7.25;;;26.50;99.90;;;;;;10046988;28;20029;-71
2023/09/09 02:05:00;;;;;;;11.27;6.80;;;26.40;99.90;;;;;;10035355;28;20056;-73
2023/09/09 02:09:51;;;;;;;10.23;6.85;;;26.30;99.90;;;;;;10039936;28;20038;-71
2023/09/09 02:14:42;;;;;;;14.07;7.03;;;26.20;99.90;;;;;;10035671;28;20446;-73
2023/09/09 02:19:32;;;;;;;9.75;6.93;;;26.10;99.90;;;;;;10030716;28;20026;-74
2023/09/09 02:24:23;;;;;;;10.57;7.55;;;26.10;99.90;;;;;;10023890;28;20033;-73
2023/09/09 02:29:16;;;;;;;8.60;6.65;;;26.10;99.90;;;;;;10051384;28;20529;-73
2023/09/09 02:34:07;;;;;;;9.57;6.93;;;26.00;99.90;;;;;;10030080;28;20025;-73
2023/09/09 02:38:58;;;;;;;9.60;6.57;;;26.10;99.90;;;;;;10045814;28;20124;-73
2023/09/09 02:43:48;;;;;;;9.50;6.65;;;26.10;99.90;;;;;;10033644;28;20033;-72
2023/09/09 02:48:39;;;;;;;9.05;5.97;;;26.00;99.90;;;;;;10036897;28;20045;-72
2023/09/09 02:53:30;;;;;;;8.10;5.90;;;25.90;99.90;;;;;;10030389;28;20085;-73
2023/09/09 02:58:20;;;;;;;7.65;5.90;;;25.90;99.90;;;;;;10035912;28;20021;-74
2023/09/09 03:03:11;;;;;;;11.40;7.43;;;25.80;99.90;;;;;;10031601;28;20058;-75
2023/09/09 03:08:05;;;;;;;8.68;6.55;;;25.70;99.90;;;;;;10020423;28;20578;-75
2023/09/09 03:12:59;;;;;;;7.72;5.97;;;25.70;99.90;;;;;;10024478;28;20128;-75
2023/09/09 03:17:50;;;;;;;10.23;6.75;;;25.70;99.90;;;;;;10022533;28;20026;-75
2023/09/09 03:22:40;;;;;;;7.88;5.97;;;25.60;99.90;;;;;;10020695;28;20044;-74
2023/09/09 03:27:32;;;;;;;8.48;5.70;;;25.50;99.90;;;;;;10022752;28;20373;-74
2023/09/09 03:32:23;;;;;;;11.25;7.00;;;25.50;99.90;;;;;;10052714;28;20040;-75
2023/09/09 03:37:13;;;;;;;8.60;7.18;;;25.60;99.90;;;;;;10042975;28;20029;-73
2023/09/09 03:42:04;;;;;;;10.40;8.52;;;25.50;99.90;;;;;;10042490;28;20377;-74
2023/09/09 03:46:55;;;;;;;8.63;7.43;;;25.40;99.90;;;;;;10034803;28;20034;-74
2023/09/09 03:51:45;;;;;;;12.20;6.28;;;25.40;99.90;;;;;;10032164;28;20530;-74
2023/09/09 03:56:36;;;;;;;8.48;6.05;;;25.30;99.90;;;;;;10035899;28;20030;-74
2023/09/09 04:01:26;;;;;;;9.30;6.10;;;25.30;99.90;;;;;;10037013;28;20463;-74
2023/09/09 04:06:19;;;;;;;8.23;5.78;;;25.20;99.90;;;;;;10006795;28;20601;-73
2023/09/09 04:11:09;;;;;;;9.80;5.22;;;25.10;99.90;;;;;;10030819;28;20036;-73
2023/09/09 04:16:00;;;;;;;7.03;5.57;;;24.90;99.90;;;;;;10028171;28;20404;-73
2023/09/09 04:20:51;;;;;;;9.15;6.22;;;25.10;99.90;;;;;;10018817;28;20037;-74
2023/09/09 04:25:43;;;;;;;8.95;7.13;;;25.10;99.90;;;;;;10019545;28;20068;-74
2023/09/09 04:30:34;;;;;;;9.30;6.97;;;24.90;99.90;;;;;;10044739;28;20034;-74
2023/09/09 04:35:24;;;;;;;7.70;5.93;;;24.90;99.90;;;;;;10041836;28;20415;-74
2023/09/09 04:40:15;;;;;;;7.82;6.30;;;24.80;99.90;;;;;;10044810;28;20037;-73
2023/09/09 04:45:06;;;;;;;8.45;5.85;;;24.90;99.90;;;;;;10038408;28;20584;-75
2023/09/09 04:49:58;;;;;;;9.80;6.53;;;24.80;99.90;;;;;;10032304;28;20763;-74
2023/09/09 04:54:49;;;;;;;9.00;7.03;;;24.80;99.90;;;;;;10029534;28;20026;-73
2023/09/09 04:59:40;;;;;;;12.43;5.88;;;24.80;99.90;;;;;;10041656;28;20033;-73
2023/09/09 05:04:30;;;;;;;9.55;6.63;;;24.60;99.90;;;;;;10010172;28;20419;-74
2023/09/09 05:09:21;;;;;;;9.82;6.18;;;24.50;99.90;;;;;;10022057;28;20046;-73
2023/09/09 05:14:12;;;;;;;9.23;6.00;;;24.40;99.90;;;;;;10029522;28;20144;-73
2023/09/09 05:19:03;;;;;;;7.30;5.30;;;24.40;99.90;;;;;;10023680;28;20037;-73
2023/09/09 05:23:53;;;;;;;6.80;5.53;;;24.50;99.90;;;;;;10012726;28;20522;-73
2023/09/09 05:28:44;;;;;;;7.68;6.00;;;24.40;99.90;;;;;;10030619;28;20049;-73
2023/09/09 05:33:34;;;;;;;9.23;5.65;;;24.30;99.90;;;;;;10041450;28;20029;-74
2023/09/09 05:38:26;;;;;;;12.05;6.63;;;24.40;99.90;;;;;;10052957;28;20033;-73
2023/09/09 05:43:17;;;;;;;8.05;5.68;;;24.50;99.90;;;;;;10038482;28;20025;-74
2023/09/09 05:48:08;;;;;;;12.88;6.60;;;24.50;99.90;;;;;;10023882;28;20022;-73
2023/09/09 05:52:59;;;;;;;9.35;7.07;;;24.40;99.90;;;;;;10035392;28;20534;-74
2023/09/09 05:57:49;;;;;;;8.25;5.63;;;24.70;99.90;;;;;;10042934;28;20018;-73
2023/09/09 06:02:43;;;;;;;9.98;7.10;;;24.80;99.90;;;;;;10052802;28;20056;-74
2023/09/09 06:07:33;;;;;;;8.43;6.55;;;24.80;99.90;;;;;;10042580;28;20030;-73
2023/09/09 06:12:24;;;;;;;10.30;7.13;;;24.60;99.90;;;;;;10038807;28;20562;-73
2023/09/09 06:17:15;;;;;;;8.07;6.30;;;24.60;99.90;;;;;;10011304;28;20029;-74
2023/09/09 06:22:06;;;;;;;14.80;7.78;;;24.60;99.90;;;;;;10026725;28;20570;-74
2023/09/09 06:26:57;;;;;;;8.48;5.90;;;24.60;99.90;;;;;;10034732;28;20379;-74
2023/09/09 06:31:48;;;;;;;9.60;7.15;;;24.60;99.90;;;;;;10046459;28;20040;-74
2023/09/09 06:36:39;;;;;;;10.05;6.63;;;24.60;99.90;;;;;;10046393;28;20104;-74
2023/09/09 06:41:29;;;;;;;9.13;7.15;;;24.50;99.90;;;;;;10043723;28;20120;-74
2023/09/09 06:46:20;;;;;;;9.32;6.50;;;24.60;99.90;;;;;;10025872;28;20591;-73
2023/09/09 06:51:11;;;;;;;11.70;6.68;;;24.70;99.90;;;;;;10029964;28;20170;-73
2023/09/09 06:56:01;;;;;;;8.45;6.35;;;24.60;99.90;;;;;;10032437;28;20372;-72
2023/09/09 07:00:52;;;;;;;9.23;6.68;;;24.60;99.90;;;;;;10045411;28;20109;-72
2023/09/09 07:05:43;;;;;;;9.05;7.25;;;24.60;99.90;;;;;;10037280;28;20120;-75
2023/09/09 07:10:34;;;;;;;10.40;7.07;;;24.60;99.90;;;;;;10039211;28;20503;-74
2023/09/09 07:15:25;;;;;;;12.75;7.18;;;24.60;99.90;;;;;;10033500;28;20032;-73
2023/09/09 07:20:18;;;;;;;12.23;6.97;;;24.80;99.90;;;;;;10027104;28;20057;-73
2023/09/09 07:25:09;;;;;;;9.65;7.30;;;24.70;99.90;;;;;;10017739;28;20484;-72
2023/09/09 07:30:00;;;;;;;11.80;6.80;;;24.70;99.90;;;;;;10005970;28;20136;-73
2023/09/09 07:34:50;;;;;;;8.63;7.05;;;24.80;99.90;;;;;;10013999;28;20054;-73
2023/09/09 07:39:50;;;;;;;10.77;7.30;;;24.80;99.90;;;;;;10037279;28;20029;-73
2023/09/09 07:44:41;;;;;;;9.43;6.28;;;24.80;99.90;;;;;;10039789;28;20029;-74
2023/09/09 07:49:33;;;;;;;13.27;8.38;;;24.90;99.90;;;;;;10034480;28;20045;-71
2023/09/09 07:54:24;;;;;;;12.20;8.07;;;24.90;99.90;;;;;;10009987;28;20064;-74
2023/09/09 07:59:14;;;;;;;10.98;7.13;;;24.90;99.90;;;;;;10045000;28;20395;-74
2023/09/09 08:04:05;;;;;;;9.25;6.72;;;25.00;99.90;;;;;;10034229;28;20145;-72
2023/09/09 08:08:56;;;;;;;14.25;7.25;;;25.00;99.90;;;;;;10045278;28;20052;-73
2023/09/09 08:13:46;;;;;;;10.63;6.43;;;25.10;99.90;;;;;;10034332;28;20369;-72
2023/09/09 08:18:37;;;;;;;9.57;6.50;;;25.20;99.90;;;;;;10028668;28;20026;-73
2023/09/09 08:23:27;;;;;;;12.73;6.30;;;25.10;99.90;;;;;;10022567;28;20030;-73
2023/09/09 08:28:18;;;;;;;7.50;5.97;;;25.20;99.90;;;;;;10017948;28;20052;-73
2023/09/09 08:33:09;;;;;;;7.88;5.63;;;25.20;99.90;;;;;;10044917;28;20033;-74
2023/09/09 08:38:01;;;;;;;9.18;6.28;;;25.30;99.90;;;;;;10036627;28;20083;-73
2023/09/09 08:43:12;;;;;;;10.02;6.60;;;25.30;99.90;;;;;;10038967;28;20483;-74
2023/09/09 08:48:09;;;;;;;8.23;6.05;;;25.40;99.90;;;;;;10030752;28;20022;-73
2023/09/09 08:53:02;;;;;;;8.48;6.10;;;25.40;99.90;;;;;;10034685;28;20032;-72
2023/09/09 08:57:53;;;;;;;11.30;7.03;;;25.40;99.90;;;;;;10035890;28;20034;-74
2023/09/09 09:02:46;;;;;;;8.18;5.68;;;25.50;99.90;;;;;;10042755;28;20046;-72
2023/09/09 09:07:41;;;;;;;9.75;6.13;;;25.70;99.90;;;;;;10039802;28;20034;-72
2023/09/09 09:12:38;;;;;;;11.00;6.80;;;25.60;99.90;;;;;;10025187;28;20061;-72
2023/09/09 09:17:31;;;;;;;9.07;6.25;;;25.70;99.90;;;;;;10018551;28;20075;-72
2023/09/09 09:22:23;;;;;;;8.45;6.57;;;25.70;99.90;;;;;;10031151;28;20472;-74
2023/09/09 09:27:14;;;;;;;19.42;7.30;;;25.80;99.90;;;;;;10027147;28;20010;-73
2023/09/09 09:32:05;;;;;;;7.25;6.30;;;25.80;99.90;;;;;;10055643;28;20176;-72
2023/09/09 09:36:56;;;;;;;8.73;6.22;;;25.90;99.90;;;;;;10048300;28;20432;-72
2023/09/09 09:41:48;;;;;;;8.57;6.35;;;25.90;99.90;;;;;;10048263;28;20040;-73
2023/09/09 09:46:39;;;;;;;12.15;6.75;;;26.00;99.90;;;;;;10039463;28;20028;-73
2023/09/09 09:51:45;;;;;;;17.90;7.20;;;26.00;99.90;;;;;;10036694;28;20057;-73
2023/09/09 09:56:38;;;;;;;7.88;6.53;;;26.10;99.90;;;;;;10036957;28;20515;-73
2023/09/09 10:01:29;;;;;;;8.95;6.28;;;26.10;99.90;;;;;;10040696;28;20038;-73
2023/09/09 10:06:26;;;;;;;10.30;6.55;;;26.20;99.90;;;;;;10045862;28;20116;-73
2023/09/09 10:11:19;;;;;;;10.52;7.32;;;26.20;99.90;;;;;;10016774;28;20073;-73
2023/09/09 10:16:12;;;;;;;9.30;5.88;;;26.30;99.90;;;;;;10027748;28;20095;-73
2023/09/09 10:21:06;;;;;;;8.45;5.95;;;26.30;99.90;;;;;;10028116;28;20030;-73
2023/09/09 10:25:57;;;;;;;9.05;6.32;;;26.30;99.90;;;;;;10023600;28;20021;-72
2023/09/09 10:30:53;;;;;;;8.00;5.93;;;26.40;99.90;;;;;;10031788;28;20101;-72
2023/09/09 10:35:45;;;;;;;8.00;5.90;;;26.40;99.90;;;;;;10044392;28;20024;-74
2023/09/09 10:40:37;;;;;;;8.15;6.70;;;26.40;99.90;;;;;;10045406;28;20049;-74
2023/09/09 10:45:32;;;;;;;9.15;6.07;;;26.50;99.90;;;;;;10033411;28;20030;-73
2023/09/09 10:50:45;;;;;;;7.05;5.93;;;26.50;99.90;;;;;;10035497;28;20712;-73
2023/09/09 10:55:36;;;;;;;10.52;6.13;;;26.50;99.90;;;;;;10013092;28;20067;-74
2023/09/09 11:00:43;;;;;;;7.45;6.25;;;26.60;99.90;;;;;;10045115;28;20033;-73
2023/09/09 11:05:58;;;;;;;8.77;6.28;;;26.70;99.90;;;;;;10044573;28;20053;-71
2023/09/09 11:11:08;;;;;;;9.65;6.60;;;26.70;99.90;;;;;;10017983;28;20226;-73
2023/09/09 11:15:59;;;;;;;9.43;6.25;;;26.80;99.90;;;;;;10032333;28;20499;-74
2023/09/09 11:20:51;;;;;;;12.57;6.80;;;26.80;99.90;;;;;;10024430;28;20112;-72
2023/09/09 11:25:44;;;;;;;8.82;7.43;;;26.80;99.90;;;;;;10020071;28;20042;-73
2023/09/09 11:30:41;;;;;;;6.70;5.93;;;26.80;99.90;;;;;;10043274;28;20044;-73
2023/09/09 11:35:32;;;;;;;11.45;6.88;;;26.90;99.90;;;;;;10040380;28;20128;-73
2023/09/09 11:40:25;;;;;;;6.82;5.57;;;26.90;99.90;;;;;;10042399;28;20137;-73
2023/09/09 11:45:18;;;;;;;9.15;6.38;;;27.00;99.90;;;;;;10035338;28;20603;-74
2023/09/09 11:50:09;;;;;;;11.87;6.30;;;27.10;99.90;;;;;;10025859;28;20049;-72
2023/09/09 11:54:59;;;;;;;8.52;6.50;;;27.10;99.90;;;;;;10025937;28;20029;-72
2023/09/09 11:59:51;;;;;;;9.48;5.97;;;27.10;99.90;;;;;;10041829;28;20076;-71
2023/09/09 12:04:55;;;;;;;9.18;5.78;;;27.20;99.90;;;;;;10025188;28;20534;-73
2023/09/09 12:09:47;;;;;;;9.02;7.10;;;27.30;99.90;;;;;;10023253;28;20042;-72
2023/09/09 12:14:37;;;;;;;8.50;6.68;;;27.40;99.90;;;;;;10032861;28;20080;-73
2023/09/09 12:19:28;;;;;;;8.18;6.43;;;27.40;99.90;;;;;;10012486;28;20075;-73
2023/09/09 12:24:19;;;;;;;12.35;6.53;;;27.50;99.90;;;;;;10025357;28;20105;-72
2023/09/09 12:29:11;;;;;;;11.43;7.68;;;27.60;99.90;;;;;;10033739;28;20032;-72
2023/09/09 12:34:01;;;;;;;9.98;5.57;;;27.80;99.90;;;;;;10039767;28;20053;-72
2023/09/09 12:38:52;;;;;;;6.10;5.32;;;28.10;99.90;;;;;;10042271;28;20034;-72
2023/09/09 12:43:43;;;;;;;7.38;5.93;;;28.10;99.90;;;;;;10032285;28;20133;-73
2023/09/09 12:48:52;;;;;;;13.27;9.40;;;28.20;99.90;;;;;;10032628;28;20026;-75
2023/09/09 12:53:43;;;;;;;8.10;6.28;;;28.20;99.90;;;;;;10025702;28;20037;-74
2023/09/09 12:58:33;;;;;;;7.60;4.90;;;28.40;99.90;;;;;;10040755;28;20384;-72
2023/09/09 13:03:24;;;;;;;7.07;5.18;;;28.50;99.90;;;;;;10036759;28;20143;-74
2023/09/09 13:08:15;;;;;;;8.35;5.45;;;28.50;99.90;;;;;;10014471;28;20400;-74
2023/09/09 13:13:05;;;;;;;8.15;6.15;;;28.60;99.90;;;;;;10024972;28;20038;-74
2023/09/09 13:17:56;;;;;;;5.82;4.47;;;28.80;99.90;;;;;;10024612;28;20034;-74
2023/09/09 13:22:46;;;;;;;6.38;4.55;;;28.90;99.90;;;;;;10019778;28;20614;-74
2023/09/09 13:27:38;;;;;;;6.38;4.93;;;29.10;99.90;;;;;;10010102;28;20045;-72
2023/09/09 13:32:34;;;;;;;10.57;4.40;;;29.20;99.90;;;;;;10025351;28;20073;-73
2023/09/09 13:37:26;;;;;;;8.27;4.47;;;29.40;99.90;;;;;;10033393;28;20038;-74
2023/09/09 13:42:16;;;;;;;6.90;4.38;;;29.50;99.90;;;;;;10031868;28;20021;-73
2023/09/09 13:47:07;;;;;;;6.43;4.80;;;29.70;99.90;;;;;;10024141;28;20030;-72
2023/09/09 13:51:57;;;;;;;7.80;5.10;;;29.80;99.90;;;;;;10028565;28;20061;-73
2023/09/09 13:56:48;;;;;;;5.85;4.20;;;29.90;99.90;;;;;;10038552;28;20157;-73
2023/09/09 14:01:39;;;;;;;6.78;4.85;;;30.10;99.90;;;;;;10047333;28;20042;-73
2023/09/09 14:06:29;;;;;;;7.35;4.18;;;30.30;99.90;;;;;;10045139;28;20034;-73
2023/09/09 14:11:20;;;;;;;7.65;4.47;;;30.50;99.90;;;;;;10040782;28;20473;-73
2023/09/09 14:16:11;;;;;;;7.75;4.95;;;30.60;99.90;;;;;;10033930;28;20026;-74
2023/09/09 14:21:02;;;;;;;5.78;4.70;;;30.80;99.90;;;;;;10028992;28;20125;-73
2023/09/09 14:25:52;;;;;;;6.03;4.05;;;31.00;99.80;;;;;;10022436;28;20069;-73
2023/09/09 14:30:47;;;;;;;9.48;4.53;;;31.20;99.70;;;;;;10041220;28;20029;-73
2023/09/09 14:35:37;;;;;;;8.77;4.72;;;31.30;99.40;;;;;;10035500;28;20320;-73
2023/09/09 14:40:29;;;;;;;8.65;4.30;;;31.40;99.30;;;;;;10042193;28;20177;-74
2023/09/09 14:45:20;;;;;;;8.68;4.07;;;31.60;99.10;;;;;;10039405;28;20022;-75
2023/09/09 14:50:11;;;;;;;6.03;3.70;;;31.80;98.90;;;;;;10034030;28;20213;-72
2023/09/09 14:55:02;;;;;;;4.55;3.85;;;31.90;98.70;;;;;;10031824;28;20029;-73
2023/09/09 14:59:53;;;;;;;7.95;4.63;;;32.10;98.50;;;;;;10044903;28;20113;-73
2023/09/09 15:04:44;;;;;;;5.80;4.47;;;32.30;98.40;;;;;;10044868;28;20050;-72
2023/09/09 15:09:34;;;;;;;6.43;4.00;;;32.50;98.20;;;;;;10036280;28;20349;-73
2023/09/09 15:14:25;;;;;;;6.75;4.15;;;32.70;98.10;;;;;;10035018;28;20034;-72
2023/09/09 15:19:16;;;;;;;6.63;4.35;;;32.80;97.80;;;;;;10030003;28;20010;-73
2023/09/09 15:24:07;;;;;;;6.88;3.85;;;32.80;97.60;;;;;;10021320;28;20034;-74
2023/09/09 15:28:57;;;;;;;7.78;3.88;;;32.90;97.50;;;;;;10034126;28;20035;-75
2023/09/09 15:33:48;;;;;;;7.75;5.57;;;33.00;97.20;;;;;;10042485;28;20116;-76
2023/09/09 15:38:41;;;;;;;6.78;4.03;;;33.20;97.10;;;;;;10039074;28;20496;-74
2023/09/09 15:43:32;;;;;;;7.50;3.97;;;33.30;96.90;;;;;;10040470;28;20101;-75
2023/09/09 15:48:37;;;;;;;5.13;4.40;;;33.30;96.60;;;;;;10035494;28;20121;-75
2023/09/09 15:53:28;;;;;;;5.53;4.30;;;33.50;96.40;;;;;;10014865;28;20095;-73
2023/09/09 15:58:20;;;;;;;5.88;4.38;;;33.60;96.20;;;;;;10039808;28;20109;-74
2023/09/09 16:03:11;;;;;;;6.00;3.55;;;33.80;96.10;;;;;;10044676;28;20061;-75
2023/09/09 16:08:01;;;;;;;4.18;3.50;;;33.90;95.90;;;;;;10038915;28;20030;-75
2023/09/09 16:12:52;;;;;;;6.00;4.10;;;34.00;95.80;;;;;;10035305;28;20393;-75
2023/09/09 16:17:44;;;;;;;6.88;4.00;;;34.00;95.50;;;;;;10029648;28;20034;-73
2023/09/09 16:22:34;;;;;;;8.00;3.97;;;34.20;95.20;;;;;;10006464;28;20030;-75
2023/09/09 16:27:26;;;;;;;7.18;3.63;;;34.10;95.10;;;;;;10018685;28;20449;-74
2023/09/09 16:32:17;;;;;;;10.35;3.95;;;34.00;95.00;;;;;;10043425;28;20503;-75
2023/09/09 16:37:07;;;;;;;7.55;3.63;;;34.00;94.80;;;;;;10042591;28;20030;-74
2023/09/09 16:41:58;;;;;;;6.20;3.60;;;34.00;94.60;;;;;;10043710;28;20383;-76
2023/09/09 16:46:49;;;;;;;8.02;3.95;;;34.00;94.50;;;;;;10037018;28;20037;-75
2023/09/09 16:51:40;;;;;;;5.35;4.28;;;33.90;94.20;;;;;;10033848;28;20089;-74
2023/09/09 16:56:31;;;;;;;6.90;4.05;;;33.70;94.10;;;;;;10025330;28;20052;-75
2023/09/09 17:01:22;;;;;;;6.43;3.63;;;33.80;94.00;;;;;;10018406;28;20076;-75
2023/09/09 17:06:13;;;;;;;6.43;3.85;;;33.70;94.00;;;;;;10040388;28;20146;-75
2023/09/09 17:11:04;;;;;;;8.60;4.80;;;33.70;93.90;;;;;;10035097;28;20571;-76
2023/09/09 17:15:57;;;;;;;6.47;4.53;;;33.40;93.90;;;;;;10024811;28;20037;-74
2023/09/09 17:20:50;;;;;;;6.80;3.95;;;33.10;94.00;;;;;;10023996;28;20042;-74
2023/09/09 17:25:40;;;;;;;7.55;4.75;;;32.90;94.10;;;;;;10016840;28;20025;-76
2023/09/09 17:30:31;;;;;;;5.55;4.35;;;32.70;94.20;;;;;;10045201;28;20559;-75
2023/09/09 17:35:27;;;;;;;10.10;5.75;;;32.60;94.20;;;;;;10047869;28;20021;-75
2023/09/09 17:40:18;;;;;;;11.77;7.45;;;32.60;94.20;;;;;;10047779;28;20029;-75
2023/09/09 17:45:09;;;;;;;9.32;5.70;;;32.50;94.20;;;;;;10037898;28;20428;-75
2023/09/09 17:50:00;;;;;;;7.95;4.57;;;32.40;94.20;;;;;;10037343;28;20042;-75
2023/09/09 17:54:51;;;;;;;7.50;4.63;;;32.40;94.40;;;;;;10032579;28;20543;-73
2023/09/09 17:59:41;;;;;;;9.75;5.80;;;32.30;94.50;;;;;;10039025;28;20026;-74
2023/09/09 18:04:32;;;;;;;8.48;5.40;;;32.40;94.50;;;;;;10047671;28;20050;-73
2023/09/09 18:09:23;;;;;;;12.27;7.30;;;32.30;94.60;;;;;;10042790;28;20045;-74
2023/09/09 18:14:14;;;;;;;16.13;8.50;;;32.30;94.70;;;;;;10035215;28;20022;-74
2023/09/09 18:19:04;;;;;;;16.15;7.00;;;32.20;94.80;;;;;;10029025;28;20133;-76
2023/09/09 18:23:55;;;;;;;12.50;8.65;;;32.10;95.00;;;;;;10022562;28;20508;-73
2023/09/09 18:28:47;;;;;;;12.68;7.25;;;32.10;95.10;;;;;;10044030;28;20109;-75
2023/09/09 18:33:37;;;;;;;12.90;6.55;;;32.00;95.10;;;;;;10047012;28;20460;-76
2023/09/09 18:38:28;;;;;;;12.80;7.07;;;31.90;95.30;;;;;;10045946;28;20048;-76
2023/09/09 18:43:19;;;;;;;11.05;6.20;;;32.00;95.30;;;;;;10039076;28;20139;-75
2023/09/09 18:48:10;;;;;;;9.95;5.75;;;31.90;95.30;;;;;;10033962;28;20022;-76
2023/09/09 18:53:01;;;;;;;10.68;7.75;;;31.80;95.30;;;;;;10027352;28;20034;-76
2023/09/09 18:57:55;;;;;;;15.68;6.97;;;31.80;95.40;;;;;;10036777;28;20030;-76
2023/09/09 19:02:46;;;;;;;13.60;8.43;;;31.70;95.40;;;;;;10047969;28;20069;-76
2023/09/09 19:07:38;;;;;;;17.88;9.55;;;31.70;95.50;;;;;;10038548;28;20022;-76
2023/09/09 19:12:29;;;;;;;10.50;5.95;;;31.60;95.50;;;;;;10037272;28;20030;-76
2023/09/09 19:17:20;;;;;;;11.05;6.38;;;31.60;95.50;;;;;;10030596;28;20022;-76
2023/09/09 19:22:10;;;;;;;10.05;6.28;;;31.50;95.50;;;;;;10032076;28;20499;-75
2023/09/09 19:27:01;;;;;;;10.25;6.25;;;31.40;95.80;;;;;;10021005;28;20030;-75
2023/09/09 19:31:52;;;;;;;9.32;6.32;;;31.20;95.80;;;;;;10053692;28;20110;-74
2023/09/09 19:36:44;;;;;;;9.30;5.65;;;31.10;95.90;;;;;;10046070;28;20033;-77
2023/09/09 19:41:34;;;;;;;8.43;5.75;;;31.10;95.80;;;;;;10054791;28;20064;-78
2023/09/09 19:46:25;;;;;;;8.85;5.47;;;31.00;96.00;;;;;;10042276;28;20028;-78
2023/09/09 19:51:16;;;;;;;7.32;4.50;;;31.00;96.00;;;;;;10030294;28;20037;-77
2023/09/09 19:56:06;;;;;;;7.55;5.20;;;30.90;96.10;;;;;;10036184;28;20021;-78
2023/09/09 20:00:57;;;;;;;9.20;4.93;;;30.80;96.20;;;;;;10048166;28;20045;-75
2023/09/09 20:05:50;;;;;;;9.50;5.68;;;30.70;96.40;;;;;;10027759;28;20412;-77
2023/09/09 20:10:44;;;;;;;11.02;5.50;;;30.70;96.50;;;;;;10039784;28;20492;-78
2023/09/09 20:15:39;;;;;;;10.35;6.43;;;30.60;96.60;;;;;;10038559;28;20037;-77
2023/09/09 20:20:30;;;;;;;7.88;5.68;;;30.50;96.70;;;;;;10031635;28;20026;-75
2023/09/09 20:25:21;;;;;;;8.30;4.85;;;30.50;96.80;;;;;;10027538;28;20037;-78
2023/09/09 20:30:12;;;;;;;8.82;5.68;;;30.40;97.00;;;;;;10039327;28;20042;-78
2023/09/09 20:35:03;;;;;;;7.53;5.28;;;30.30;97.20;;;;;;10047924;28;20098;-76
2023/09/09 20:39:54;;;;;;;12.82;5.43;;;30.20;97.40;;;;;;10047893;28;20028;-71
2023/09/09 20:44:45;;;;;;;10.02;5.80;;;30.10;97.60;;;;;;10038384;28;20432;-77
2023/09/09 20:49:37;;;;;;;8.23;5.57;;;30.00;97.80;;;;;;10034111;28;20498;-75
2023/09/09 20:54:27;;;;;;;6.40;5.05;;;29.90;98.00;;;;;;10025052;28;20025;-79
2023/09/09 20:59:18;;;;;;;9.45;5.75;;;29.80;98.10;;;;;;10043768;28;20025;-76
2023/09/09 21:04:09;;;;;;;8.40;6.82;;;29.80;98.30;;;;;;10042455;28;20152;-74
2023/09/09 21:09:00;;;;;;;10.98;8.00;;;29.60;98.50;;;;;;10042401;28;20057;-78
2023/09/09 21:13:50;;;;;;;14.00;10.38;;;29.50;98.60;;;;;;10018722;28;20042;-77
2023/09/09 21:18:43;;;;;;;11.85;7.35;;;29.50;98.70;;;;;;10033626;28;20021;-72
2023/09/09 21:23:33;;;;;;;11.02;6.57;;;29.50;98.80;;;;;;10028243;28;20018;-74
2023/09/09 21:28:25;;;;;;;9.52;6.30;;;29.50;98.90;;;;;;10020983;28;20099;-76
2023/09/09 21:33:16;;;;;;;8.98;5.90;;;29.50;98.90;;;;;;10055089;28;20064;-76
2023/09/09 21:38:06;;;;;;;8.60;5.88;;;29.40;99.10;;;;;;10054896;28;20021;-77
2023/09/09 21:42:57;;;;;;;7.93;5.38;;;29.40;99.20;;;;;;10041540;28;20033;-76
2023/09/09 21:47:48;;;;;;;10.00;6.43;;;29.30;99.20;;;;;;10040609;28;20030;-74
2023/09/09 21:52:39;;;;;;;11.90;6.22;;;29.20;99.30;;;;;;10032388;28;20148;-71
2023/09/09 21:57:30;;;;;;;11.20;6.07;;;29.20;99.40;;;;;;10039660;28;20124;-72
2023/09/09 22:02:20;;;;;;;9.50;5.97;;;28.90;99.60;;;;;;10048133;28;20061;-71
2023/09/09 22:07:11;;;;;;;9.40;6.03;;;29.00;99.70;;;;;;10038869;28;20029;-76
2023/09/09 22:12:03;;;;;;;9.90;6.20;;;28.90;99.70;;;;;;10035876;28;20029;-73
2023/09/09 22:16:59;;;;;;;8.10;5.57;;;28.80;99.80;;;;;;10031707;28;20072;-70
2023/09/09 22:21:49;;;;;;;8.15;5.72;;;28.80;99.90;;;;;;10028108;28;20049;-72
2023/09/09 22:26:40;;;;;;;8.10;6.00;;;28.90;99.90;;;;;;10024304;28;20457;-71
2023/09/09 22:31:31;;;;;;;10.40;5.93;;;28.80;99.90;;;;;;10033909;28;20143;-72
2023/09/09 22:36:21;;;;;;;10.30;7.28;;;28.70;99.90;;;;;;10050235;28;20434;-77
2023/09/09 22:41:12;;;;;;;8.50;5.63;;;28.50;99.90;;;;;;10044151;28;20030;-73
2023/09/09 22:46:08;;;;;;;9.48;5.82;;;28.50;99.90;;;;;;10042056;28;20021;-71
2023/09/09 22:51:02;;;;;;;8.77;6.00;;;28.50;99.90;;;;;;10036071;28;20037;-73
2023/09/09 22:55:52;;;;;;;7.68;5.65;;;28.40;99.90;;;;;;10026845;28;20021;-74
2023/09/09 23:00:43;;;;;;;8.50;5.38;;;28.30;99.90;;;;;;10045000;28;20484;-74
2023/09/09 23:05:34;;;;;;;7.13;5.97;;;28.30;99.90;;;;;;10045344;28;20381;-73
2023/09/09 23:10:24;;;;;;;10.05;6.60;;;28.30;99.90;;;;;;10042925;28;20037;-73
2023/09/09 23:15:19;;;;;;;11.43;6.97;;;28.20;99.90;;;;;;10039069;28;20030;-73
2023/09/09 23:20:10;;;;;;;10.02;6.60;;;28.20;99.90;;;;;;10030279;28;20611;-78
2023/09/09 23:25:01;;;;;;;9.00;6.85;;;28.30;99.90;;;;;;10022758;28;20107;-75
2023/09/09 23:29:51;;;;;;;10.15;6.22;;;28.10;99.90;;;;;;10042566;28;20119;-77
2023/09/09 23:34:42;;;;;;;9.50;6.28;;;28.00;99.90;;;;;;10045937;28;20041;-76
2023/09/09 23:39:34;;;;;;;9.70;6.10;;;28.00;99.90;;;;;;10046104;28;20049;-77
2023/09/09 23:44:24;;;;;;;8.77;6.10;;;27.90;99.90;;;;;;10039177;28;20384;-78
2023/09/09 23:49:15;;;;;;;10.73;6.20;;;27.80;99.90;;;;;;10026607;28;20044;-73
2023/09/09 23:54:06;;;;;;;9.18;6.40;;;27.80;99.90;;;;;;10021756;28;20619;-71
2023/09/09 23:58:57;;;;;;;12.77;9.02;;;27.80;99.90;;;;;;10044593;28;20040;-75
